Station: Robe Airport

  Atmospheric Gas Attenuation - ITU Rec 676-11   --------------- db/100km ---------------
Date Time Temp RH % AH g/m3 Dew Point Wind Direction Speed kph Gust kph Barometer mB Rainfall Since 9am 24GHz 47GHz 76GHz 122GHz 134GHz 241GHz
24 20:10 24.2 48 10.56 12.5 9 9 1013.1 0 23.2 25.9 42.0 110.6 109.5 378.7
24 20:00 24.2 48 10.56 12.5 13 19 1001.4 0 23.2 25.5 41.5 109.4 108.5 375.1
24 19:50 24.3 48 10.62 12.6 17 20 1013.1 0 23.3 26.0 42.2 111.1 110.1 380.8
24 19:40 24.9 46 10.53 12.5 19 22 1013.1 0 23.1 25.7 41.6 109.4 108.2 374.1
24 19:30 25.4 43 10.12 11.9 17 28 1001.3 0 22.2 24.5 39.3 103.5 101.6 351.2
24 19:20 25.9 42 10.17 12 19 22 1013.1 0 22.3 24.9 39.8 104.5 102.5 354.5
24 19:10 28.6 31 8.71 9.8 30 39 1013.1 0 19.1 22.2 33.5 87.9 82.9 285.9
24 19:00 34.4 12 4.6 0.9 17 28 1000.9 0 10.5 15.7 19.3 50.0 38.2 129.4
24 18:50 35.3 12 4.82 1.6 20 24 1013.1 0 10.9 16.1 20.0 51.8 40.1 136.2
24 18:40 35.7 11 4.51 0.7 15 17 1013.1 0 10.3 15.8 19.1 49.4 37.3 126.2
24 18:30 36.2 12 5.05 2.3 15 20 1000.6 0 11.4 15.9 20.0 52.1 41.2 140.2
24 18:20 36.3 11 4.65 1.1 17 19 1013.1 0 10.6 15.8 19.3 50.0 38.2 129.5
24 18:10 36.3 11 4.65 1.1 13 15 1013.1 0 10.6 15.8 19.3 50.0 38.2 129.5
24 18:00 36.7 10 4.32 0.1 13 19 1000.7 0 9.9 15.1 18.1 46.8 34.8 117.7
24 17:50 36.9 11 4.8 1.6 11 13 1013.1 0 10.8 15.9 19.6 50.7 39.2 133.1
24 17:40 36.6 10 4.3 0 17 19 1013.1 0 9.8 15.4 18.4 47.4 35.1 118.6
24 17:30 37.6 10 4.52 0.8 19 26 1001 0 10.3 15.2 18.4 47.7 36.1 122.4
24 17:20 37.8 11 5.03 2.3 19 22 1013.1 0 11.3 16.0 20.0 51.8 40.8 138.6
24 17:10 39.3 9 4.44 0.6 19 22 1013.1 0 10.1 15.1 18.1 46.9 35.2 119.1
24 17:00 38.5 10 4.74 1.5 17 24 1001.1 0 10.7 15.2 18.8 48.7 37.6 127.6
24 16:50 39.5 9 4.48 0.7 20 24 1013.1 0 10.1 15.1 18.2 47.1 35.5 120.0
24 16:40 38.9 9 4.35 0.3 19 20 1013.1 0 9.9 15.1 18.0 46.6 34.6 117.0
24 16:30 39.1 10 4.88 1.9 20 28 1001.4 0 10.9 15.3 19.0 49.3 38.5 130.8
24 16:20 39 9 4.37 0.4 20 24 1013.1 0 9.9 15.1 18.0 46.6 34.8 117.5
24 16:10 39.4 9 4.46 0.7 20 24 1013.1 0 10.1 15.1 18.2 47.0 35.3 119.6
24 16:00 39.6 10 5.01 2.3 19 26 1001.7 0 11.2 15.4 19.2 49.9 39.3 133.9
24 15:50 38.3 11 5.16 2.6 19 24 1013.1 0 11.5 16.0 20.2 52.4 41.6 141.7
24 15:40 38.7 10 4.78 1.6 24 28 1013.1 0 10.8 15.6 19.1 49.5 38.3 129.9
24 15:30 39.3 10 4.93 2.1 24 32 1002.1 0 11.0 15.3 19.1 49.6 38.8 132.1
24 15:20 39.8 10 5.06 2.4 24 32 1013.1 0 11.3 15.7 19.6 50.8 40.1 136.4
24 15:10 40 10 5.11 2.6 24 32 1013.1 0 11.4 15.7 19.7 51.0 40.4 137.6
24 15:00 40.6 10 5.26 3.1 24 32 1002.4 0 11.7 15.5 19.6 51.0 41.0 139.7
24 14:50 40.3 10 5.19 2.8 28 32 1013.1 0 11.5 15.7 19.8 51.4 40.9 139.5
24 14:40 41 9 4.83 1.8 26 33 1013.1 0 10.8 15.3 18.8 48.6 37.7 128.0
24 14:30 40.7 9 4.76 1.7 30 39 1002.8 0 10.7 15.0 18.4 47.7 36.9 125.2
24 14:20 40.6 8 4.21 -0.1 32 35 1013.1 0 9.6 14.7 17.3 44.8 32.8 110.9
24 14:10 40.9 8 4.27 0.1 28 37 1013.1 0 9.7 14.7 17.4 45.0 33.2 112.2
24 14:00 40.8 9 4.78 1.7 30 43 1003.2 0 10.7 15.0 18.4 47.8 37.0 125.7
24 13:50 40.8 8 4.25 0.1 33 39 1013.1 0 9.6 14.7 17.4 44.9 33.1 111.8
24 13:40 41.4 8 4.38 0.5 28 37 1013.1 0 9.9 14.8 17.6 45.5 33.9 114.7
24 13:30 41.1 8 4.32 0.3 30 43 1003.8 0 9.8 14.5 17.3 44.7 33.2 112.4
24 13:20 40.5 9 4.71 1.5 32 33 1013.1 0 10.6 15.2 18.6 48.1 36.9 125.2
24 13:10 40.5 9 4.71 1.5 26 30 1013.1 0 10.6 15.2 18.6 48.1 36.9 125.2
24 13:00 40 9 4.6 1.1 28 43 1004.2 0 10.4 15.0 18.2 47.1 35.9 121.8
24 12:50 40.3 10 5.19 2.8 30 33 1013.1 0 11.5 15.7 19.8 51.4 40.9 139.5
24 12:40 40.5 10 5.24 3 24 28 1013.1 0 11.6 15.8 19.9 51.6 41.3 140.6
24 12:30 39.6 10 5.01 2.3 28 41 1004.7 0 11.2 15.4 19.3 50.1 39.5 134.2
24 12:20 38.8 11 5.29 3 32 35 1013.1 0 11.8 16.1 20.4 53.0 42.5 144.8
24 12:10 38.6 12 5.71 4.1 32 37 1013.1 0 12.6 16.6 21.5 56.0 46.2 157.8
24 12:00 38.3 15 7.03 7.1 28 37 1005.3 0 15.3 17.8 24.9 65.1 57.7 198.2
24 11:50 37.4 17 7.61 8.2 24 28 1013.1 0 16.5 18.9 27.0 70.7 64.0 220.6
24 11:40 36.6 19 8.16 9.2 32 35 1013.1 0 17.7 19.7 28.9 75.6 69.9 241.1
24 11:30 35 21 8.31 9.4 22 33 1005.8 0 18.0 20.0 29.6 77.7 72.3 249.3
24 11:20 35.3 23 9.24 11 24 28 1013.1 0 19.9 21.3 32.6 85.5 81.7 282.6
24 11:10 33.9 24 8.96 10.5 28 33 1013.1 0 19.4 21.3 32.2 84.6 80.3 277.2
24 11:00 33.4 27 9.82 11.9 19 30 1006.3 0 21.2 22.3 34.9 91.8 89.2 308.7
24 10:50 32 28 9.46 11.7 15 19 1013.1 0 20.5 22.4 34.6 90.8 87.4 302.1
24 10:40 30.9 30 9.55 11.3 20 24 1013.1 0 20.8 22.7 35.3 92.8 89.6 309.6
24 10:30 30.6 30 9.4 11.5 17 26 1006.7 0 20.5 22.4 34.7 91.3 87.8 303.4
24 10:20 30.4 30 9.3 11.3 19 22 1013.1 0 20.3 22.5 34.7 91.2 87.4 301.9
24 10:10 30.3 30 9.25 11.2 20 22 1013.1 0 20.2 22.5 34.6 90.9 87.0 300.4
24 10:00 30.3 32 9.86 11.8 19 24 1006.9 0 21.4 23.1 36.4 95.7 93.2 322.2
24 09:50 30 32 9.71 11.9 20 26 1013.1 0 21.1 23.2 36.3 95.3 92.3 319.1
24 09:40 29.1 34 9.82 12 13 17 1013.1 0 21.4 23.6 37.0 97.3 94.6 327.0
24 09:30 28.3 38 10.51 12.6 19 24 1006.9 0 22.9 24.5 39.5 104.1 102.9 356.1
24 09:20 27.8 38 10.22 12.5 17 20 1013.1 0 22.3 24.5 39.0 102.6 100.7 348.3
24 09:10 27.3 41 10.73 12.9 17 22 1013.1 0 23.4 25.3 41.1 108.1 107.3 371.4
24 09:00 26.7 43 10.88 13.1 20 28 1006.8 0 23.7 25.5 41.7 109.7 109.4 378.5
24 08:50 26.2 45 11.08 13.6 19 22 1013.1 0 24.2 26.1 42.9 113.0 113.0 391.2
24 08:40 25.4 49 11.54 13.9 13 17 1013.1 0 25.2 27.1 45.1 118.7 119.9 415.0
24 08:30 24.8 52 11.84 14.3 15 22 1006.9 0 25.9 27.5 46.3 122.0 124.0 429.3
24 08:20 24.1 53 11.6 13.9 17 19 1013.1 0 25.4 27.6 46.1 121.3 122.6 424.5
24 08:10 23.8 54 11.62 13.9 19 22 1013.1 0 25.4 27.7 46.3 122.0 123.3 427.0
24 08:00 23.4 56 11.77 14.1 15 20 1006.9 0 25.8 27.8 46.8 123.4 125.3 433.8
24 07:50 23.1 57 11.78 14.1 15 20 1013.1 0 25.8 28.2 47.3 124.7 126.5 438.0
24 07:40 22.4 59 11.72 14 9 11 1013.1 0 25.7 28.3 47.5 125.2 126.9 439.2
24 07:30 22.2 60 11.78 14.1 6 9 1007.1 0 25.9 28.2 47.6 125.4 127.4 441.0
24 07:20 22.1 59 11.52 13.9 6 6 1013.1 0 25.3 28.1 46.9 123.5 124.8 431.8
24 07:10 21.9 61 11.77 14 9 11 1013.1 0 25.9 28.5 48.0 126.5 128.4 444.3
24 07:00 21.6 62 11.76 14 9 13 1006.8 0 25.9 28.4 47.9 126.2 128.1 443.4
24 06:50 21.5 62 11.69 13.9 9 9 1013.1 0 25.7 28.5 47.9 126.3 128.0 442.9
24 06:40 21.5 62 11.69 13.9 9 13 1013.1 0 25.7 28.5 47.9 126.3 128.0 442.9
24 06:30 21.4 63 11.81 14.1 9 13 1006.6 0 26.0 28.5 48.2 127.0 129.1 446.7
24 06:20 21.1 64 11.79 14 7 9 1013.1 0 26.0 28.8 48.6 128.0 130.0 449.8
24 06:10 21.1 64 11.79 14 9 11 1013.1 0 26.0 28.8 48.6 128.0 130.0 449.8
24 06:00 20.9 65 11.84 14.1 9 13 1006.4 0 26.1 28.7 48.6 128.1 130.3 450.9
24 05:50 20.6 66 11.81 14 7 7 1013.1 0 26.0 29.0 49.0 129.1 131.1 453.6
24 05:40 20.2 66 11.54 13.6 7 7 1013.1 0 25.5 28.7 48.1 126.8 128.1 443.3
24 05:30 20.3 67 11.78 14 7 9 1006.2 0 26.0 28.8 48.7 128.4 130.5 451.5
24 05:20 20.4 66 11.67 13.8 9 9 1013.1 0 25.8 28.9 48.5 127.9 129.5 448.2
24 04:50 20.5 65 11.56 13.7 6 7 1013.1 0 25.5 28.6 48.0 126.5 127.9 442.5
24 04:40 20.6 65 11.63 13.8 9 11 1013.1 0 25.7 28.7 48.3 127.1 128.7 445.2
24 04:30 20.6 66 11.81 14 9 11 1006 0 26.1 28.8 48.6 128.2 130.3 451.1
24 04:20 20.5 66 11.74 13.9 7 9 1013.1 0 25.9 28.9 48.8 128.5 130.3 450.9
24 04:10 20.5 65 11.56 13.7 6 7 1013.1 0 25.5 28.6 48.0 126.5 127.9 442.5
24 04:00 20.7 65 11.7 13.9 7 9 1006.3 0 25.8 28.6 48.1 126.9 128.7 445.5
24 03:50 20.3 66 11.61 13.9 7 11 1013.1 0 25.6 28.8 48.4 127.4 128.9 446.0
24 03:40 19.7 69 11.72 13.8 7 9 1013.1 0 25.9 29.2 49.2 129.6 131.4 454.6
24 03:30 19.6 69 11.65 13.8 6 9 1006.3 0 25.8 28.8 48.6 128.1 129.9 449.5
24 03:20 19.4 67 11.18 13.1 6 6 1013.1 0 24.8 28.4 47.1 124.1 124.6 430.9

Last Refresh: 24-Jan-2021 20:25:28

Most of the information presented on this site is sourced from the Bureau of Meteorology.  Copyright in all material sourced from the Bureau of Meteorology resides with the Commonwealth of Australia.